createdAt,value
2022-10-02T00:00:52.689Z,25.65
2022-10-02T00:03:56.592Z,25.73
2022-10-02T00:07:05.458Z,25.73
2022-10-02T00:10:46.528Z,25.73
2022-10-02T00:13:56.424Z,25.68
2022-10-02T00:17:01.082Z,25.70
2022-10-02T00:20:12.687Z,25.53
2022-10-02T00:23:32.146Z,25.69
2022-10-02T00:26:54.576Z,25.70
2022-10-02T00:30:00.928Z,25.65
2022-10-02T00:33:23.475Z,25.65
2022-10-02T00:36:34.800Z,25.42
2022-10-02T00:39:37.174Z,25.65
2022-10-02T00:42:49.086Z,25.64
2022-10-02T00:46:03.593Z,25.65
2022-10-02T00:49:24.767Z,25.66
2022-10-02T00:52:47.390Z,25.66
2022-10-02T00:56:07.991Z,25.64
2022-10-02T00:59:37.959Z,25.61
2022-10-02T01:02:45.923Z,25.61
2022-10-02T01:05:48.121Z,25.62
2022-10-02T01:08:52.154Z,25.63
2022-10-02T01:11:55.513Z,25.56
2022-10-02T01:14:57.725Z,25.57
2022-10-02T01:18:02.322Z,25.60
2022-10-02T01:21:22.281Z,25.53
2022-10-02T01:24:34.976Z,25.53
2022-10-02T01:27:39.404Z,25.61
2022-10-02T01:30:46.331Z,25.61
2022-10-02T01:33:49.525Z,25.49
2022-10-02T01:36:51.915Z,25.57
2022-10-02T01:39:54.586Z,25.64
2022-10-02T01:43:02.003Z,25.54
2022-10-02T01:46:40.030Z,25.63
2022-10-02T01:50:01.464Z,25.61
2022-10-02T01:53:15.092Z,25.58
2022-10-02T01:56:43.362Z,25.52
2022-10-02T02:00:04.228Z,25.60
2022-10-02T02:04:01.321Z,25.39
2022-10-02T02:07:13.562Z,25.47
2022-10-02T02:10:31.374Z,25.54
2022-10-02T02:13:49.277Z,25.50
2022-10-02T02:17:02.688Z,25.51
2022-10-02T02:20:18.462Z,25.55
2022-10-02T02:23:26.824Z,25.57
2022-10-02T02:26:30.452Z,25.46
2022-10-02T02:29:37.385Z,25.54
2022-10-02T02:32:53.957Z,25.58
2022-10-02T02:36:01.328Z,25.54
2022-10-02T02:39:10.275Z,25.52
2022-10-02T02:42:17.811Z,25.42
2022-10-02T02:45:28.207Z,25.45
2022-10-02T02:48:45.425Z,25.52
2022-10-02T02:51:48.662Z,25.58
2022-10-02T02:54:57.159Z,25.64
2022-10-02T02:57:59.385Z,25.61
2022-10-02T03:01:01.724Z,25.62
2022-10-02T03:04:04.310Z,25.61
2022-10-02T03:07:13.836Z,25.52
2022-10-02T03:10:24.282Z,25.58
2022-10-02T03:13:49.609Z,25.50
2022-10-02T03:16:51.835Z,25.64
2022-10-02T03:20:06.504Z,25.57
2022-10-02T03:23:30.497Z,25.58
2022-10-02T03:27:05.120Z,25.44
2022-10-02T03:30:09.778Z,25.59
2022-10-02T03:33:15.706Z,25.57
2022-10-02T03:36:20.552Z,25.32
2022-10-02T03:39:25.547Z,25.62
2022-10-02T03:42:31.733Z,25.57
2022-10-02T03:45:50.402Z,25.60
2022-10-02T03:48:56.427Z,25.58
2022-10-02T03:51:58.700Z,25.49
2022-10-02T03:55:13.498Z,25.52
2022-10-02T03:58:18.037Z,25.54
2022-10-02T04:01:29.067Z,25.48
2022-10-02T04:05:09.983Z,25.56
2022-10-02T04:08:26.648Z,25.56
2022-10-02T04:11:46.595Z,25.43
2022-10-02T04:15:00.485Z,25.52
2022-10-02T04:18:20.687Z,25.51
2022-10-02T04:21:34.410Z,25.50
2022-10-02T04:24:47.108Z,25.55
2022-10-02T04:28:01.530Z,25.54
2022-10-02T04:31:11.344Z,25.52
2022-10-02T04:34:14.163Z,25.29
2022-10-02T04:37:22.363Z,25.51
2022-10-02T04:40:24.845Z,25.51
2022-10-02T04:43:44.332Z,25.48
2022-10-02T04:47:05.040Z,25.50
2022-10-02T04:50:32.062Z,25.49
2022-10-02T04:54:07.672Z,25.51
2022-10-02T04:57:33.853Z,25.47
2022-10-02T05:01:00.398Z,25.39
2022-10-02T05:04:36.579Z,25.45
2022-10-02T05:08:03.694Z,25.44
2022-10-02T05:11:27.301Z,25.47
2022-10-02T05:14:51.158Z,25.39
2022-10-02T05:18:24.628Z,25.47
2022-10-02T05:21:45.361Z,25.46
2022-10-02T05:25:15.530Z,25.44
2022-10-02T05:28:23.821Z,25.43
2022-10-02T05:31:37.953Z,25.46
2022-10-02T05:34:55.632Z,25.46
2022-10-02T05:38:03.686Z,25.46
2022-10-02T05:41:30.404Z,25.42
2022-10-02T05:44:39.309Z,25.28
2022-10-02T05:47:45.167Z,25.37
2022-10-02T05:50:53.598Z,25.38
2022-10-02T05:54:03.536Z,25.39
2022-10-02T05:57:14.038Z,25.47
2022-10-02T06:00:22.317Z,25.55
2022-10-02T06:03:31.248Z,25.66
2022-10-02T06:06:46.838Z,25.79
2022-10-02T06:10:01.020Z,25.79
2022-10-02T06:13:17.633Z,25.89
2022-10-02T06:16:30.283Z,25.94
2022-10-02T06:20:11.284Z,26.01
2022-10-02T06:23:20.449Z,26.02
2022-10-02T06:26:34.626Z,25.97
2022-10-02T06:29:46.251Z,26.06
2022-10-02T06:32:59.333Z,26.16
2022-10-02T06:36:07.540Z,26.18
2022-10-02T06:39:21.886Z,26.18
2022-10-02T06:42:34.797Z,26.19
2022-10-02T06:45:49.235Z,26.18
2022-10-02T06:49:09.695Z,26.21
2022-10-02T06:52:14.876Z,26.22
2022-10-02T06:55:48.929Z,26.19
2022-10-02T06:59:04.692Z,26.19
2022-10-02T07:02:23.500Z,26.13
2022-10-02T07:05:40.233Z,26.21
2022-10-02T07:08:54.033Z,25.99
2022-10-02T07:12:34.931Z,26.28
2022-10-02T07:16:09.018Z,26.28
2022-10-02T07:19:20.169Z,26.36
2022-10-02T07:22:56.439Z,26.40
2022-10-02T07:26:07.541Z,26.48
2022-10-02T07:29:19.634Z,26.52
2022-10-02T07:32:37.772Z,26.59
2022-10-02T07:36:07.682Z,26.70
2022-10-02T07:39:27.552Z,26.75
2022-10-02T07:42:53.829Z,26.89
2022-10-02T07:46:27.990Z,27.12
2022-10-02T07:49:42.323Z,27.28
2022-10-02T07:53:07.922Z,27.32
2022-10-02T07:56:20.111Z,27.53
2022-10-02T07:59:22.648Z,27.66
2022-10-02T08:02:25.057Z,27.75
2022-10-02T08:05:33.300Z,27.77
2022-10-02T08:08:44.057Z,27.78
2022-10-02T08:11:56.147Z,27.62
2022-10-02T08:14:59.492Z,27.29
2022-10-02T08:18:33.132Z,27.01
2022-10-02T08:21:41.249Z,26.87
2022-10-02T08:24:49.218Z,26.67
2022-10-02T08:28:01.885Z,26.58
2022-10-02T08:31:10.947Z,26.43
2022-10-02T08:34:22.007Z,26.34
2022-10-02T08:37:24.385Z,26.40
2022-10-02T08:40:51.595Z,26.33
2022-10-02T08:44:12.014Z,26.30
2022-10-02T08:47:33.041Z,26.23
2022-10-02T08:50:38.254Z,26.18
2022-10-02T08:53:58.806Z,26.18
2022-10-02T08:57:12.123Z,26.17
2022-10-02T09:00:55.734Z,25.89
2022-10-02T09:04:44.951Z,26.13
2022-10-02T09:07:53.644Z,26.13
2022-10-02T09:11:29.878Z,26.12
2022-10-02T09:14:45.078Z,26.12
2022-10-02T09:18:08.252Z,26.11
2022-10-02T09:21:37.145Z,26.03
2022-10-02T09:24:55.326Z,26.11
2022-10-02T09:28:31.044Z,26.08
2022-10-02T09:32:24.376Z,26.16
2022-10-02T09:35:53.913Z,26.14
2022-10-02T09:39:18.282Z,26.14
2022-10-02T09:42:36.020Z,26.14
2022-10-02T09:45:53.777Z,26.16
2022-10-02T09:49:34.831Z,26.18
2022-10-02T09:53:01.066Z,26.18
2022-10-02T09:56:39.091Z,26.18
2022-10-02T09:59:47.233Z,26.19
2022-10-02T10:02:58.306Z,26.20
2022-10-02T10:06:28.507Z,26.21
2022-10-02T10:09:46.114Z,26.22
2022-10-02T10:13:12.798Z,26.19
2022-10-02T10:16:39.807Z,26.21
2022-10-02T10:20:06.448Z,26.20
2022-10-02T10:23:36.436Z,26.24
2022-10-02T10:26:44.685Z,26.22
2022-10-02T10:30:17.467Z,26.22
2022-10-02T10:33:34.612Z,26.22
2022-10-02T10:37:22.198Z,26.23
2022-10-02T10:40:42.991Z,26.27
2022-10-02T10:44:24.250Z,26.16
2022-10-02T10:47:39.139Z,26.18
2022-10-02T10:51:02.936Z,26.24
2022-10-02T10:54:29.439Z,26.25
2022-10-02T10:57:41.184Z,26.21
2022-10-02T11:01:08.721Z,26.18
2022-10-02T11:04:38.992Z,26.28
2022-10-02T11:08:09.696Z,26.28
2022-10-02T11:11:49.631Z,26.28
2022-10-02T11:15:17.595Z,26.30
2022-10-02T11:19:02.444Z,26.29
2022-10-02T11:22:10.410Z,26.30
2022-10-02T11:25:19.670Z,26.30
2022-10-02T11:28:36.481Z,26.30
2022-10-02T11:32:06.485Z,26.33
2022-10-02T11:35:23.315Z,26.33
2022-10-02T11:38:35.469Z,26.33
2022-10-02T11:41:43.822Z,26.33
2022-10-02T11:45:08.133Z,26.35
2022-10-02T11:48:32.075Z,26.38
2022-10-02T11:51:46.322Z,26.38
2022-10-02T11:55:13.202Z,26.34
2022-10-02T11:58:41.988Z,26.36
2022-10-02T12:01:53.007Z,26.38
2022-10-02T12:05:15.556Z,26.41
2022-10-02T12:08:41.273Z,26.40
2022-10-02T12:12:10.196Z,26.38
2022-10-02T12:15:31.368Z,26.39
2022-10-02T12:18:59.368Z,26.37
2022-10-02T12:22:38.978Z,26.43
2022-10-02T12:26:12.308Z,26.34
2022-10-02T12:29:44.107Z,26.43
2022-10-02T12:33:08.241Z,26.44
2022-10-02T12:36:32.302Z,26.36
2022-10-02T12:39:42.742Z,26.46
2022-10-02T12:43:00.821Z,26.44
2022-10-02T12:46:30.377Z,26.47
2022-10-02T12:50:00.224Z,26.47
2022-10-02T12:53:26.965Z,26.49
2022-10-02T12:56:53.865Z,26.50
2022-10-02T13:00:08.630Z,26.46
2022-10-02T13:03:47.019Z,26.51
2022-10-02T13:07:13.626Z,26.51
2022-10-02T13:10:22.043Z,26.52
2022-10-02T13:13:50.356Z,26.53
2022-10-02T13:17:00.008Z,26.49
2022-10-02T13:20:21.206Z,26.52
2022-10-02T13:23:32.108Z,26.52
2022-10-02T13:26:59.720Z,26.55
2022-10-02T13:30:11.178Z,26.57
2022-10-02T13:33:45.626Z,26.56
2022-10-02T13:37:02.725Z,26.56
2022-10-02T13:40:24.390Z,26.56
2022-10-02T13:43:42.304Z,26.57
2022-10-02T13:47:12.467Z,26.58
2022-10-02T13:50:58.196Z,26.57
2022-10-02T13:54:18.995Z,26.57
2022-10-02T13:57:31.372Z,26.56
2022-10-02T14:00:39.323Z,26.59
2022-10-02T14:03:47.423Z,26.61
2022-10-02T14:07:03.377Z,26.58
2022-10-02T14:10:16.955Z,26.45
2022-10-02T14:13:31.366Z,26.59
2022-10-02T14:17:10.201Z,26.52
2022-10-02T14:20:34.742Z,26.62
2022-10-02T14:23:58.620Z,26.54
2022-10-02T14:27:19.396Z,26.53
2022-10-02T14:30:27.049Z,26.55
2022-10-02T14:33:36.042Z,26.62
2022-10-02T14:36:50.405Z,26.62
2022-10-02T14:39:55.644Z,26.51
2022-10-02T14:43:36.544Z,26.63
2022-10-02T14:46:44.773Z,26.62
2022-10-02T14:50:23.386Z,26.62
2022-10-02T14:54:00.488Z,26.57
2022-10-02T14:57:26.049Z,26.63
2022-10-02T15:00:50.439Z,26.57
2022-10-02T15:04:08.060Z,26.61
2022-10-02T15:07:18.545Z,26.54
2022-10-02T15:10:28.352Z,26.64
2022-10-02T15:13:36.656Z,26.64
2022-10-02T15:17:22.721Z,26.60
2022-10-02T15:20:38.541Z,26.55
2022-10-02T15:23:49.794Z,26.62
2022-10-02T15:27:02.285Z,26.62
2022-10-02T15:30:13.614Z,26.63
2022-10-02T15:33:25.527Z,26.45
2022-10-02T15:36:36.315Z,26.62
2022-10-02T15:39:41.728Z,26.62
2022-10-02T15:42:58.718Z,26.56
2022-10-02T15:46:07.129Z,26.62
2022-10-02T15:49:40.515Z,26.60
2022-10-02T15:52:54.804Z,26.58
2022-10-02T15:56:15.714Z,26.59
2022-10-02T15:59:55.434Z,26.53
2022-10-02T16:03:19.143Z,26.48
2022-10-02T16:06:29.440Z,26.45
2022-10-02T16:09:48.011Z,26.57
2022-10-02T16:13:24.140Z,26.38
2022-10-02T16:16:52.493Z,26.52
2022-10-02T16:20:02.720Z,26.58
2022-10-02T16:23:17.175Z,26.58
2022-10-02T16:26:40.931Z,26.56
2022-10-02T16:29:58.326Z,26.55
2022-10-02T16:33:15.445Z,26.54
2022-10-02T16:36:47.165Z,26.54
2022-10-02T16:40:02.301Z,26.54
2022-10-02T16:43:24.322Z,26.53
2022-10-02T16:46:49.577Z,26.52
2022-10-02T16:50:16.816Z,26.53
2022-10-02T16:54:00.740Z,26.48
2022-10-02T16:57:15.118Z,26.51
2022-10-02T17:00:37.365Z,26.49
2022-10-02T17:03:58.571Z,26.50
2022-10-02T17:07:07.727Z,26.52
2022-10-02T17:10:37.875Z,26.52
2022-10-02T17:14:07.687Z,26.51
2022-10-02T17:17:47.544Z,26.48
2022-10-02T17:21:21.823Z,26.48
2022-10-02T17:24:47.363Z,26.48
2022-10-02T17:27:58.207Z,26.50
2022-10-02T17:31:00.509Z,26.46
2022-10-02T17:34:20.147Z,26.40
2022-10-02T17:37:55.738Z,26.47
2022-10-02T17:41:16.782Z,26.48
2022-10-02T17:44:36.780Z,26.48
2022-10-02T17:47:54.769Z,26.47
2022-10-02T17:51:52.728Z,26.36
2022-10-02T17:55:27.038Z,26.47
2022-10-02T17:58:55.994Z,26.41
2022-10-02T18:02:07.087Z,26.47
2022-10-02T18:05:34.305Z,26.44
2022-10-02T18:08:36.638Z,26.44
2022-10-02T18:11:50.141Z,26.38
2022-10-02T18:15:05.190Z,26.31
2022-10-02T18:18:28.316Z,26.46
2022-10-02T18:21:33.297Z,26.45
2022-10-02T18:24:46.831Z,26.36
2022-10-02T18:28:19.543Z,26.42
2022-10-02T18:32:07.525Z,26.38
2022-10-02T18:35:31.069Z,26.35
2022-10-02T18:38:59.404Z,26.46
2022-10-02T18:42:21.234Z,26.42
2022-10-02T18:45:46.277Z,26.42
2022-10-02T18:49:03.076Z,26.42
2022-10-02T18:52:21.393Z,26.43
2022-10-02T18:55:45.292Z,26.43
2022-10-02T18:59:12.772Z,26.37
2022-10-02T19:02:27.102Z,26.41
2022-10-02T19:05:49.598Z,26.39
2022-10-02T19:09:04.187Z,26.41
2022-10-02T19:12:15.545Z,26.41
2022-10-02T19:15:25.208Z,26.25
2022-10-02T19:18:30.031Z,26.34
2022-10-02T19:21:35.479Z,26.36
2022-10-02T19:24:40.688Z,26.31
2022-10-02T19:27:49.849Z,26.37
2022-10-02T19:30:56.330Z,26.31
2022-10-02T19:34:17.431Z,26.38
2022-10-02T19:37:19.994Z,26.16
2022-10-02T19:40:32.147Z,26.32
2022-10-02T19:43:42.941Z,26.38
2022-10-02T19:46:49.150Z,26.31
2022-10-02T19:49:52.430Z,26.21
2022-10-02T19:52:58.843Z,26.36
2022-10-02T19:56:09.717Z,26.36
2022-10-02T19:59:28.230Z,26.29
2022-10-02T20:02:39.457Z,26.35
2022-10-02T20:05:45.232Z,26.12
2022-10-02T20:09:14.726Z,26.33
2022-10-02T20:12:31.896Z,26.33
2022-10-02T20:16:07.873Z,26.22
2022-10-02T20:19:24.829Z,26.33
2022-10-02T20:22:39.002Z,26.33
2022-10-02T20:25:48.230Z,26.31
2022-10-02T20:29:00.522Z,26.26
2022-10-02T20:32:15.751Z,26.20
2022-10-02T20:35:35.338Z,26.29
2022-10-02T20:38:49.639Z,26.33
2022-10-02T20:42:01.265Z,26.29
2022-10-02T20:45:03.706Z,26.09
2022-10-02T20:49:06.417Z,26.27
2022-10-02T20:52:46.173Z,26.28
2022-10-02T20:55:50.852Z,26.27
2022-10-02T20:59:15.018Z,26.29
2022-10-02T21:02:41.915Z,26.27
2022-10-02T21:06:08.752Z,26.29
2022-10-02T21:09:35.294Z,26.27
2022-10-02T21:13:10.681Z,26.17
2022-10-02T21:16:54.807Z,26.24
2022-10-02T21:20:14.112Z,26.26
2022-10-02T21:23:57.783Z,26.27
2022-10-02T21:27:46.338Z,26.27
2022-10-02T21:31:10.714Z,26.26
2022-10-02T21:34:31.777Z,26.27
2022-10-02T21:37:53.738Z,26.25
2022-10-02T21:41:33.603Z,26.25
2022-10-02T21:45:13.844Z,26.27
2022-10-02T21:48:53.412Z,26.25
2022-10-02T21:52:33.531Z,26.25
2022-10-02T21:56:13.096Z,26.14
2022-10-02T21:59:38.460Z,26.20
2022-10-02T22:03:18.417Z,26.25
2022-10-02T22:06:36.719Z,26.22
2022-10-02T22:10:04.584Z,26.09
2022-10-02T22:13:18.251Z,26.20
2022-10-02T22:16:28.699Z,26.21
2022-10-02T22:19:57.940Z,26.16
2022-10-02T22:23:00.162Z,26.21
2022-10-02T22:26:39.676Z,26.20
2022-10-02T22:29:53.503Z,26.11
2022-10-02T22:33:10.800Z,26.19
2022-10-02T22:36:34.935Z,26.19
2022-10-02T22:39:42.746Z,26.17
2022-10-02T22:43:07.471Z,26.13
2022-10-02T22:46:47.588Z,26.13
2022-10-02T22:49:57.159Z,26.15
2022-10-02T22:53:26.043Z,26.17
2022-10-02T22:56:39.335Z,26.15
2022-10-02T22:59:59.199Z,26.11
2022-10-02T23:03:02.051Z,26.13
2022-10-02T23:06:14.437Z,26.06
2022-10-02T23:09:29.482Z,26.15
2022-10-02T23:12:51.233Z,26.13
2022-10-02T23:16:01.067Z,26.01
2022-10-02T23:19:15.116Z,26.06
2022-10-02T23:22:29.674Z,26.10
2022-10-02T23:25:44.433Z,26.05
2022-10-02T23:29:12.354Z,26.08
2022-10-02T23:32:40.163Z,26.08
2022-10-02T23:36:22.182Z,26.08
2022-10-02T23:39:29.216Z,26.10
2022-10-02T23:42:56.459Z,26.08
2022-10-02T23:46:09.722Z,26.06
2022-10-02T23:49:12.913Z,25.93
2022-10-02T23:52:24.457Z,26.03
2022-10-02T23:55:44.732Z,26.03
2022-10-02T23:59:10.557Z,25.96
